Terminal Aerodrome Forecast
Issued by NWS

Home | Current Version | Previous Version | Text Only | Print | Product List | Glossary On
Versions: 1 2 3 4 5 6 7 8 9 10 11 12 13 14
000
FTUS46 KSGX 251129
TAFSNA
TAF
KSNA 251129Z 2512/2612 VRB04KT P6SM VCSH FEW015 BKN180
      TEMPO 2512/2516 BKN015
     FM252000 23011G18KT P6SM SCT020 BKN035
     FM260200 VRB06KT P6SM SCT020 SCT035 BKN180
     FM260500 VRB05KT P6SM BKN015=

USA.gov is the U.S. government's official web portal to all federal, state and local government web resources and services.